createdAt,value
2023-01-13T00:01:16.741Z,100124.84
2023-01-13T00:03:43.710Z,100120.63
2023-01-13T00:06:14.768Z,100123.41
2023-01-13T00:08:41.372Z,100130.19
2023-01-13T00:11:09.259Z,100133.16
2023-01-13T00:13:38.112Z,100140.09
2023-01-13T00:16:07.316Z,100133.66
2023-01-13T00:18:34.792Z,100132.03
2023-01-13T00:21:10.637Z,100138.59
2023-01-13T00:23:37.353Z,100145.53
2023-01-13T00:26:13.087Z,100142.38
2023-01-13T00:28:39.733Z,100137.25
2023-01-13T00:31:11.873Z,100146.78
2023-01-13T00:33:38.908Z,100145.69
2023-01-13T00:36:07.488Z,100138.75
2023-01-13T00:38:35.842Z,100144.63
2023-01-13T00:41:07.798Z,100143.28
2023-01-13T00:43:35.946Z,100148.72
2023-01-13T00:46:03.754Z,100142.28
2023-01-13T00:48:31.198Z,100146.94
2023-01-13T00:50:59.741Z,100147.59
2023-01-13T00:53:27.600Z,100144.44
2023-01-13T00:56:14.508Z,100132.50
2023-01-13T00:58:42.220Z,100145.84
2023-01-13T01:01:15.338Z,100141.31
2023-01-13T01:03:42.001Z,100137.66
2023-01-13T01:06:15.650Z,100140.53
2023-01-13T01:08:42.947Z,100140.13
2023-01-13T01:11:12.963Z,100127.81
2023-01-13T01:13:40.529Z,100131.47
2023-01-13T01:16:09.175Z,100117.94
2023-01-13T01:18:39.151Z,100122.69
2023-01-13T01:21:06.463Z,100118.75
2023-01-13T01:23:34.128Z,100117.88
2023-01-13T01:26:08.323Z,100120.09
2023-01-13T01:28:35.495Z,100114.81
2023-01-13T01:31:19.659Z,100123.06
2023-01-13T01:33:49.221Z,100121.84
2023-01-13T01:36:18.417Z,100123.47
2023-01-13T01:38:45.507Z,100123.59
2023-01-13T01:41:18.217Z,100107.50
2023-01-13T01:44:04.072Z,100114.88
2023-01-13T01:46:42.501Z,100116.56
2023-01-13T01:49:25.140Z,100102.00
2023-01-13T01:52:10.864Z,100108.97
2023-01-13T01:54:56.232Z,100113.28
2023-01-13T01:57:46.884Z,100109.69
2023-01-13T02:00:14.023Z,100111.22
2023-01-13T02:02:43.964Z,100115.66
2023-01-13T02:05:10.982Z,100103.66
2023-01-13T02:07:40.169Z,100110.44
2023-01-13T02:10:11.814Z,100106.53
2023-01-13T02:12:40.361Z,100102.25
2023-01-13T02:15:27.238Z,100110.78
2023-01-13T02:18:07.567Z,100104.19
2023-01-13T02:20:53.083Z,100089.97
2023-01-13T02:24:05.625Z,100107.25
2023-01-13T02:26:50.854Z,100108.75
2023-01-13T02:30:06.862Z,100103.16
2023-01-13T02:32:42.645Z,100107.94
2023-01-13T02:35:26.564Z,100107.94
2023-01-13T02:37:55.715Z,100101.66
2023-01-13T02:40:56.744Z,100108.66
2023-01-13T02:43:50.473Z,100093.34
2023-01-13T02:46:34.873Z,100104.88
2023-01-13T02:49:06.636Z,100110.44
2023-01-13T02:51:34.686Z,100115.66
2023-01-13T02:54:06.732Z,100116.66
2023-01-13T02:56:37.241Z,100117.94
2023-01-13T02:59:05.138Z,100119.13
2023-01-13T03:01:31.863Z,100114.88
2023-01-13T03:03:58.693Z,100124.06
2023-01-13T03:06:46.584Z,100127.22
2023-01-13T03:09:34.259Z,100114.97
2023-01-13T03:12:08.959Z,100128.16
2023-01-13T03:14:56.755Z,100129.00
2023-01-13T03:17:39.338Z,100131.56
2023-01-13T03:20:22.065Z,100125.50
2023-01-13T03:23:13.456Z,100125.50
2023-01-13T03:25:55.630Z,100118.53
2023-01-13T03:28:31.774Z,100131.94
2023-01-13T03:31:05.320Z,100129.78
2023-01-13T03:33:37.548Z,100137.72
2023-01-13T03:36:10.729Z,100130.28
2023-01-13T03:38:42.971Z,100138.00
2023-01-13T03:41:19.048Z,100130.72
2023-01-13T03:44:12.411Z,100133.44
2023-01-13T03:46:48.280Z,100130.53
2023-01-13T03:49:22.172Z,100117.94
2023-01-13T03:51:55.621Z,100127.06
2023-01-13T03:54:24.667Z,100123.66
2023-01-13T03:56:57.348Z,100130.72
2023-01-13T03:59:31.651Z,100134.19
2023-01-13T04:02:10.896Z,100137.84
2023-01-13T04:04:48.626Z,100142.59
2023-01-13T04:07:24.901Z,100142.53
2023-01-13T04:09:56.482Z,100144.50
2023-01-13T04:12:51.495Z,100149.56
2023-01-13T04:15:21.355Z,100152.88
2023-01-13T04:17:48.133Z,100144.56
2023-01-13T04:20:14.982Z,100152.09
2023-01-13T04:22:41.602Z,100149.25
2023-01-13T04:25:08.991Z,100123.22
2023-01-13T04:27:35.742Z,100153.03
2023-01-13T04:30:02.791Z,100146.31
2023-01-13T04:32:29.520Z,100155.34
2023-01-13T04:34:56.271Z,100149.75
2023-01-13T04:37:22.912Z,100152.88
2023-01-13T04:39:49.592Z,100164.91
2023-01-13T04:42:16.266Z,100152.53
2023-01-13T04:44:42.920Z,100160.25
2023-01-13T04:47:09.586Z,100160.06
2023-01-13T04:49:36.272Z,100157.56
2023-01-13T04:52:04.034Z,100166.22
2023-01-13T04:54:30.735Z,100164.53
2023-01-13T04:56:57.659Z,100163.09
2023-01-13T04:59:24.337Z,100179.56
2023-01-13T05:01:51.181Z,100174.34
2023-01-13T05:04:17.875Z,100168.41
2023-01-13T05:06:44.608Z,100161.50
2023-01-13T05:09:13.432Z,100171.88
2023-01-13T05:11:58.406Z,100167.28
2023-01-13T05:14:43.756Z,100175.03
2023-01-13T05:17:23.878Z,100174.19
2023-01-13T05:19:50.586Z,100173.31
2023-01-13T05:22:36.166Z,100176.78
2023-01-13T05:25:21.271Z,100178.75
2023-01-13T05:27:49.359Z,100181.75
2023-01-13T05:30:17.231Z,100183.69
2023-01-13T05:32:44.146Z,100177.22
2023-01-13T05:35:10.887Z,100186.47
2023-01-13T05:37:37.884Z,100189.94
2023-01-13T05:40:24.096Z,100192.44
2023-01-13T05:43:23.088Z,100199.41
2023-01-13T05:46:09.127Z,100193.66
2023-01-13T05:48:38.466Z,100196.66
2023-01-13T05:51:07.565Z,100194.50
2023-01-13T05:53:34.444Z,100190.34
2023-01-13T05:56:04.671Z,100192.53
2023-01-13T05:58:31.365Z,100197.66
2023-01-13T06:01:06.864Z,100197.50
2023-01-13T06:03:33.895Z,100186.75
2023-01-13T06:06:02.258Z,100198.69
2023-01-13T06:08:29.692Z,100204.88
2023-01-13T06:10:56.660Z,100205.72
2023-01-13T06:13:25.335Z,100189.38
2023-01-13T06:15:52.205Z,100203.06
2023-01-13T06:18:18.936Z,100201.63
2023-01-13T06:20:47.181Z,100206.38
2023-01-13T06:23:14.134Z,100201.78
2023-01-13T06:26:05.608Z,100200.78
2023-01-13T06:28:33.364Z,100213.97
2023-01-13T06:31:05.265Z,100207.78
2023-01-13T06:33:39.192Z,100209.56
2023-01-13T06:36:12.533Z,100209.56
2023-01-13T06:38:43.580Z,100202.81
2023-01-13T06:41:10.291Z,100209.06
2023-01-13T06:43:39.116Z,100206.69
2023-01-13T06:46:06.071Z,100218.25
2023-01-13T06:48:35.245Z,100220.84
2023-01-13T06:51:03.435Z,100224.69
2023-01-13T06:53:30.227Z,100225.63
2023-01-13T06:55:56.821Z,100223.94
2023-01-13T06:58:23.489Z,100225.41
2023-01-13T07:00:51.651Z,100223.09
2023-01-13T07:03:19.255Z,100224.75
2023-01-13T07:05:56.274Z,100222.94
2023-01-13T07:08:24.533Z,100222.00
2023-01-13T07:10:51.592Z,100222.25
2023-01-13T07:13:37.209Z,100232.03
2023-01-13T07:16:06.108Z,100226.66
2023-01-13T07:18:35.002Z,100228.53
2023-01-13T07:21:10.591Z,100237.34
2023-01-13T07:23:39.683Z,100238.47
2023-01-13T07:26:08.051Z,100243.06
2023-01-13T07:28:35.566Z,100244.19
2023-01-13T07:31:02.612Z,100240.53
2023-01-13T07:33:33.127Z,100248.50
2023-01-13T07:36:02.589Z,100251.97
2023-01-13T07:38:30.764Z,100232.38
2023-01-13T07:40:57.628Z,100250.81
2023-01-13T07:43:33.211Z,100242.31
2023-01-13T07:46:05.402Z,100231.50
2023-01-13T07:48:34.198Z,100254.13
2023-01-13T07:51:07.460Z,100254.59
2023-01-13T07:53:34.657Z,100250.91
2023-01-13T07:56:02.491Z,100249.28
2023-01-13T07:58:29.953Z,100254.50
2023-01-13T08:00:57.914Z,100265.06
2023-01-13T08:03:25.179Z,100267.06
2023-01-13T08:05:51.947Z,100264.59
2023-01-13T08:08:19.136Z,100266.19
2023-01-13T08:10:45.904Z,100272.16
2023-01-13T08:16:15.477Z,100276.16
2023-01-13T08:18:43.145Z,100282.13
2023-01-13T08:21:14.658Z,100281.28
2023-01-13T08:23:45.367Z,100280.47
2023-01-13T08:26:17.718Z,100277.16
2023-01-13T08:28:45.411Z,100284.91
2023-01-13T08:31:15.976Z,100285.75
2023-01-13T08:33:42.853Z,100281.47
2023-01-13T08:36:12.509Z,100282.44
2023-01-13T08:38:40.738Z,100286.91
2023-01-13T08:41:12.653Z,100290.88
2023-01-13T08:43:39.379Z,100288.38
2023-01-13T08:46:07.201Z,100286.72
2023-01-13T08:48:34.117Z,100285.69
2023-01-13T08:51:08.887Z,100286.56
2023-01-13T08:53:35.713Z,100284.38
2023-01-13T08:56:02.465Z,100279.09
2023-01-13T08:58:29.117Z,100278.97
2023-01-13T09:00:55.882Z,100279.44
2023-01-13T09:03:22.573Z,100283.25
2023-01-13T09:05:49.182Z,100277.97
2023-01-13T09:08:15.831Z,100266.09
2023-01-13T09:10:42.513Z,100268.06
2023-01-13T09:13:13.129Z,100268.38
2023-01-13T09:15:45.217Z,100269.88
2023-01-13T09:18:13.040Z,100275.66
2023-01-13T09:20:39.774Z,100267.88
2023-01-13T09:23:10.086Z,100270.22
2023-01-13T09:25:37.491Z,100268.91
2023-01-13T09:28:05.208Z,100266.75
2023-01-13T09:30:32.010Z,100265.25
2023-01-13T09:33:18.363Z,100266.13
2023-01-13T09:35:45.068Z,100269.06
2023-01-13T09:38:11.739Z,100265.13
2023-01-13T09:40:41.540Z,100249.91
2023-01-13T09:43:42.374Z,100256.38
2023-01-13T09:46:37.046Z,100257.34
2023-01-13T09:49:04.403Z,100236.69
2023-01-13T09:51:38.695Z,100253.22
2023-01-13T09:54:28.744Z,100248.59
2023-01-13T09:56:55.401Z,100245.13
2023-01-13T09:59:22.105Z,100250.06
2023-01-13T10:02:31.644Z,100248.09
2023-01-13T10:05:07.145Z,100243.31
2023-01-13T10:07:40.123Z,100249.59
2023-01-13T10:10:16.941Z,100242.31
2023-01-13T10:13:04.339Z,100234.03
2023-01-13T10:15:32.431Z,100230.75
2023-01-13T10:18:33.536Z,100224.59
2023-01-13T10:21:41.590Z,100224.97
2023-01-13T10:24:39.889Z,100216.88
2023-01-13T10:27:28.300Z,100221.88
2023-01-13T10:29:55.288Z,100210.44
2023-01-13T10:32:23.303Z,100206.66
2023-01-13T10:34:52.078Z,100214.56
2023-01-13T10:37:24.715Z,100208.25
2023-01-13T10:39:55.565Z,100207.25
2023-01-13T10:42:24.079Z,100204.25
2023-01-13T10:44:54.812Z,100204.75
2023-01-13T10:47:28.670Z,100201.44
2023-01-13T10:50:13.379Z,100201.78
2023-01-13T10:53:00.478Z,100200.28
2023-01-13T10:55:38.833Z,100203.31
2023-01-13T10:58:18.404Z,100194.88
2023-01-13T11:00:45.936Z,100194.47
2023-01-13T11:03:21.756Z,100188.38
2023-01-13T11:05:56.949Z,100178.41
2023-01-13T11:08:41.301Z,100191.75
2023-01-13T11:11:37.844Z,100186.28
2023-01-13T11:14:32.064Z,100182.66
2023-01-13T11:17:01.944Z,100183.00
2023-01-13T11:19:31.847Z,100175.56
2023-01-13T11:22:01.833Z,100176.06
2023-01-13T11:24:45.073Z,100181.44
2023-01-13T11:27:39.047Z,100176.50
2023-01-13T11:30:30.483Z,100182.00
2023-01-13T11:33:06.144Z,100177.50
2023-01-13T11:35:37.957Z,100176.66
2023-01-13T11:38:35.777Z,100173.97
2023-01-13T11:41:20.964Z,100180.09
2023-01-13T11:44:25.724Z,100171.63
2023-01-13T11:46:53.925Z,100168.38
2023-01-13T11:49:26.497Z,100167.72
2023-01-13T11:52:16.108Z,100169.88
2023-01-13T11:55:00.897Z,100167.00
2023-01-13T11:58:01.446Z,100171.81
2023-01-13T12:00:40.030Z,100165.88
2023-01-13T12:03:24.677Z,100169.72
2023-01-13T12:06:28.789Z,100151.56
2023-01-13T12:09:25.640Z,100165.31
2023-01-13T12:12:22.228Z,100166.13
2023-01-13T12:15:03.760Z,100164.81
2023-01-13T12:17:42.108Z,100167.09
2023-01-13T12:20:45.018Z,100163.94
2023-01-13T12:23:46.297Z,100164.97
2023-01-13T12:26:16.633Z,100168.78
2023-01-13T12:28:52.954Z,100162.66
2023-01-13T12:31:21.791Z,100158.03
2023-01-13T12:33:54.956Z,100156.75
2023-01-13T12:36:47.867Z,100162.25
2023-01-13T12:39:23.444Z,100154.84
2023-01-13T12:42:16.320Z,100147.13
2023-01-13T12:45:16.837Z,100160.16
2023-01-13T12:47:48.926Z,100155.88
2023-01-13T12:50:27.590Z,100148.72
2023-01-13T12:52:59.180Z,100151.19
2023-01-13T12:55:32.485Z,100157.97
2023-01-13T12:58:08.040Z,100161.22
2023-01-13T13:00:54.411Z,100164.00
2023-01-13T13:03:29.271Z,100168.78
2023-01-13T13:05:55.921Z,100163.97
2023-01-13T13:08:22.471Z,100169.72
2023-01-13T13:11:06.577Z,100167.00
2023-01-13T13:13:48.696Z,100163.06
2023-01-13T13:16:27.510Z,100172.00
2023-01-13T13:19:22.878Z,100166.06
2023-01-13T13:22:14.468Z,100171.72
2023-01-13T13:24:43.180Z,100168.69
2023-01-13T13:27:25.134Z,100173.03
2023-01-13T13:30:10.331Z,100171.66
2023-01-13T13:32:58.793Z,100168.63
2023-01-13T13:35:52.034Z,100175.25
2023-01-13T13:39:08.442Z,100180.50
2023-01-13T13:41:55.378Z,100178.22
2023-01-13T13:44:45.708Z,100184.97
2023-01-13T13:47:12.638Z,100186.84
2023-01-13T13:49:49.414Z,100191.75
2023-01-13T13:52:21.805Z,100188.25
2023-01-13T13:54:52.759Z,100186.50
2023-01-13T13:57:33.379Z,100195.16
2023-01-13T14:00:01.086Z,100193.16
2023-01-13T14:02:30.639Z,100193.47
2023-01-13T14:05:24.047Z,100195.38
2023-01-13T14:08:01.368Z,100187.50
2023-01-13T14:10:37.733Z,100199.13
2023-01-13T14:13:18.965Z,100194.81
2023-01-13T14:15:47.907Z,100200.47
2023-01-13T14:18:19.140Z,100194.56
2023-01-13T14:20:58.768Z,100197.22
2023-01-13T14:23:28.664Z,100203.00
2023-01-13T14:26:01.108Z,100209.78
2023-01-13T14:28:32.446Z,100207.16
2023-01-13T14:31:00.352Z,100194.69
2023-01-13T14:33:38.903Z,100201.53
2023-01-13T14:36:17.614Z,100206.75
2023-01-13T14:38:47.697Z,100198.69
2023-01-13T14:41:17.403Z,100217.03
2023-01-13T14:43:50.849Z,100226.09
2023-01-13T14:46:22.741Z,100217.69
2023-01-13T14:48:53.485Z,100221.16
2023-01-13T14:51:26.620Z,100224.13
2023-01-13T14:53:54.124Z,100224.09
2023-01-13T14:56:55.202Z,100230.59
2023-01-13T14:59:35.271Z,100225.13
2023-01-13T15:02:23.460Z,100222.66
2023-01-13T15:04:53.995Z,100232.94
2023-01-13T15:07:25.642Z,100224.16
2023-01-13T15:10:01.134Z,100228.13
2023-01-13T15:12:40.826Z,100225.81
2023-01-13T15:15:23.021Z,100228.63
2023-01-13T15:17:49.946Z,100225.13
2023-01-13T15:20:19.326Z,100207.16
2023-01-13T15:22:47.406Z,100223.16
2023-01-13T15:25:15.068Z,100222.34
2023-01-13T15:27:44.165Z,100229.59
2023-01-13T15:30:20.585Z,100225.97
2023-01-13T15:32:47.542Z,100209.31
2023-01-13T15:35:16.079Z,100236.06
2023-01-13T15:37:44.452Z,100221.53
2023-01-13T15:40:16.334Z,100235.06
2023-01-13T15:43:01.584Z,100233.22
2023-01-13T15:45:47.589Z,100224.66
2023-01-13T15:48:14.354Z,100234.41
2023-01-13T15:50:41.120Z,100236.56
2023-01-13T15:53:10.654Z,100229.44
2023-01-13T15:55:39.027Z,100235.88
2023-01-13T15:58:06.311Z,100239.03
2023-01-13T16:00:33.093Z,100240.50
2023-01-13T16:03:00.136Z,100244.28
2023-01-13T16:05:26.819Z,100239.34
2023-01-13T16:07:53.514Z,100243.66
2023-01-13T16:10:23.893Z,100242.66
2023-01-13T16:12:50.626Z,100251.91
2023-01-13T16:15:19.020Z,100255.06
2023-01-13T16:17:46.595Z,100248.88
2023-01-13T16:20:18.504Z,100258.94
2023-01-13T16:22:45.535Z,100253.13
2023-01-13T16:25:20.630Z,100256.94
2023-01-13T16:27:47.897Z,100252.97
2023-01-13T16:30:37.168Z,100254.81
2023-01-13T16:33:04.010Z,100256.03
2023-01-13T16:35:32.332Z,100253.38
2023-01-13T16:37:59.966Z,100250.75
2023-01-13T16:40:33.436Z,100246.81
2023-01-13T16:43:01.880Z,100238.72
2023-01-13T16:45:28.970Z,100241.94
2023-01-13T16:47:55.968Z,100244.06
2023-01-13T16:50:41.958Z,100243.78
2023-01-13T16:53:09.902Z,100244.94
2023-01-13T16:55:38.578Z,100234.88
2023-01-13T16:58:06.064Z,100253.50
2023-01-13T17:00:32.889Z,100257.78
2023-01-13T17:03:02.049Z,100258.94
2023-01-13T17:05:29.222Z,100258.06
2023-01-13T17:07:57.153Z,100257.34
2023-01-13T17:10:25.115Z,100258.59
2023-01-13T17:12:51.881Z,100261.25
2023-01-13T17:15:20.362Z,100262.09
2023-01-13T17:17:53.428Z,100258.63
2023-01-13T17:20:20.175Z,100254.13
2023-01-13T17:22:49.773Z,100250.38
2023-01-13T17:25:21.575Z,100260.63
2023-01-13T17:27:48.253Z,100259.44
2023-01-13T17:30:15.207Z,100262.88
2023-01-13T17:32:41.973Z,100248.34
2023-01-13T17:35:09.195Z,100252.78
2023-01-13T17:37:35.875Z,100246.25
2023-01-13T17:40:02.545Z,100233.34
2023-01-13T17:42:29.720Z,100247.09
2023-01-13T17:44:56.577Z,100249.22
2023-01-13T17:47:23.657Z,100252.69
2023-01-13T17:49:50.357Z,100261.78
2023-01-13T17:52:16.991Z,100254.53
2023-01-13T17:54:44.009Z,100250.75
2023-01-13T17:57:10.825Z,100253.69
2023-01-13T17:59:37.464Z,100259.16
2023-01-13T18:02:04.921Z,100264.44
2023-01-13T18:04:31.833Z,100258.50
2023-01-13T18:06:58.522Z,100249.22
2023-01-13T18:09:26.196Z,100252.88
2023-01-13T18:11:52.860Z,100256.00
2023-01-13T18:14:22.537Z,100242.47
2023-01-13T18:16:49.423Z,100249.75
2023-01-13T18:19:34.576Z,100253.19
2023-01-13T18:22:19.878Z,100257.16
2023-01-13T18:25:05.426Z,100236.50
2023-01-13T18:27:35.247Z,100242.97
2023-01-13T18:30:03.007Z,100252.88
2023-01-13T18:32:33.131Z,100242.47
2023-01-13T18:35:07.485Z,100249.09
2023-01-13T18:37:42.208Z,100242.31
2023-01-13T18:40:12.136Z,100244.00
2023-01-13T18:42:51.425Z,100249.25
2023-01-13T18:45:20.774Z,100255.63
2023-01-13T18:47:47.456Z,100256.56
2023-01-13T18:50:14.206Z,100264.78
2023-01-13T18:52:41.434Z,100263.66
2023-01-13T18:55:08.637Z,100268.63
2023-01-13T18:57:40.050Z,100267.78
2023-01-13T19:00:12.717Z,100268.63
2023-01-13T19:02:39.790Z,100273.91
2023-01-13T19:05:07.358Z,100271.78
2023-01-13T19:07:35.810Z,100273.06
2023-01-13T19:10:04.479Z,100273.41
2023-01-13T19:12:31.493Z,100263.84
2023-01-13T19:14:59.194Z,100257.44
2023-01-13T19:17:27.722Z,100268.16
2023-01-13T19:19:56.057Z,100256.78
2023-01-13T19:22:27.415Z,100267.38
2023-01-13T19:24:54.181Z,100270.84
2023-01-13T19:27:21.864Z,100266.06
2023-01-13T19:29:52.396Z,100269.66
2023-01-13T19:32:22.599Z,100262.56
2023-01-13T19:34:51.229Z,100273.28
2023-01-13T19:37:19.366Z,100271.81
2023-01-13T19:39:46.067Z,100253.94
2023-01-13T19:42:32.535Z,100269.53
2023-01-13T19:45:18.453Z,100259.63
2023-01-13T19:47:46.100Z,100270.22
2023-01-13T19:50:14.042Z,100281.13
2023-01-13T19:52:42.168Z,100282.63
2023-01-13T19:55:09.859Z,100287.41
2023-01-13T19:57:38.248Z,100273.69
2023-01-13T20:00:08.610Z,100293.34
2023-01-13T20:02:37.030Z,100287.09
2023-01-13T20:05:06.602Z,100282.78
2023-01-13T20:07:35.383Z,100274.72
2023-01-13T20:10:02.375Z,100281.28
2023-01-13T20:12:29.927Z,100263.78
2023-01-13T20:14:56.687Z,100276.50
2023-01-13T20:17:25.688Z,100277.47
2023-01-13T20:19:53.053Z,100280.47
2023-01-13T20:22:19.680Z,100283.44
2023-01-13T20:24:46.315Z,100281.09
2023-01-13T20:27:12.916Z,100277.66
2023-01-13T20:29:39.777Z,100283.25
2023-01-13T20:32:06.478Z,100282.59
2023-01-13T20:34:33.300Z,100282.63
2023-01-13T20:37:00.383Z,100287.56
2023-01-13T20:39:27.209Z,100279.47
2023-01-13T20:42:13.359Z,100283.44
2023-01-13T20:44:40.690Z,100282.91
2023-01-13T20:47:08.118Z,100286.06
2023-01-13T20:49:36.962Z,100287.06
2023-01-13T20:52:09.532Z,100288.91
2023-01-13T20:54:40.815Z,100279.81
2023-01-13T20:57:10.044Z,100279.97
2023-01-13T21:00:11.790Z,100258.81
2023-01-13T21:02:40.238Z,100279.94
2023-01-13T21:05:07.325Z,100272.69
2023-01-13T21:07:33.988Z,100273.66
2023-01-13T21:10:01.032Z,100274.16
2023-01-13T21:12:46.180Z,100274.34
2023-01-13T21:15:20.135Z,100257.00
2023-01-13T21:18:07.389Z,100264.63
2023-01-13T21:20:37.052Z,100263.94
2023-01-13T21:23:05.215Z,100264.59
2023-01-13T21:25:35.139Z,100268.75
2023-01-13T21:28:12.284Z,100272.88
2023-01-13T21:30:39.290Z,100251.91
2023-01-13T21:33:06.496Z,100271.22
2023-01-13T21:35:33.371Z,100265.75
2023-01-13T21:38:00.108Z,100260.47
2023-01-13T21:40:27.228Z,100249.75
2023-01-13T21:43:12.266Z,100255.88
2023-01-13T21:45:58.174Z,100255.19
2023-01-13T21:48:24.908Z,100252.72
2023-01-13T21:50:51.540Z,100252.22
2023-01-13T21:53:18.214Z,100254.72
2023-01-13T21:55:44.911Z,100255.84
2023-01-13T21:58:14.093Z,100246.13
2023-01-13T22:00:43.528Z,100251.41
2023-01-13T22:03:12.539Z,100244.47
2023-01-13T22:05:39.976Z,100237.69
2023-01-13T22:08:07.467Z,100228.28
2023-01-13T22:10:34.529Z,100227.47
2023-01-13T22:13:22.850Z,100244.97
2023-01-13T22:15:49.807Z,100241.66
2023-01-13T22:18:18.329Z,100242.16
2023-01-13T22:20:45.648Z,100238.03
2023-01-13T22:23:13.888Z,100236.88
2023-01-13T22:25:40.531Z,100241.16
2023-01-13T22:28:09.218Z,100228.44
2023-01-13T22:30:35.977Z,100222.53
2023-01-13T22:33:02.632Z,100233.91
2023-01-13T22:35:29.318Z,100236.06
2023-01-13T22:37:55.976Z,100240.69
2023-01-13T22:40:22.572Z,100239.50
2023-01-13T22:42:49.231Z,100243.66
2023-01-13T22:45:16.074Z,100238.69
2023-01-13T22:47:42.775Z,100242.00
2023-01-13T22:50:09.961Z,100244.63
2023-01-13T22:52:36.693Z,100239.34
2023-01-13T22:55:04.022Z,100241.34
2023-01-13T22:57:36.069Z,100238.88
2023-01-13T23:00:06.188Z,100236.88
2023-01-13T23:02:34.589Z,100245.13
2023-01-13T23:05:01.633Z,100246.13
2023-01-13T23:10:23.113Z,100237.72
2023-01-13T23:12:49.779Z,100231.06
2023-01-13T23:15:16.439Z,100233.19
2023-01-13T23:17:43.152Z,100230.69
2023-01-13T23:20:10.536Z,100225.06
2023-01-13T23:22:38.781Z,100231.22
2023-01-13T23:25:05.828Z,100229.44
2023-01-13T23:27:32.900Z,100228.44
2023-01-13T23:29:59.577Z,100231.09
2023-01-13T23:32:26.463Z,100233.72
2023-01-13T23:34:53.070Z,100219.53
2023-01-13T23:37:19.726Z,100228.94
2023-01-13T23:39:46.369Z,100219.56
2023-01-13T23:42:13.073Z,100228.75
2023-01-13T23:44:39.706Z,100225.47
2023-01-13T23:47:06.432Z,100210.25
2023-01-13T23:49:33.093Z,100224.31
2023-01-13T23:51:59.832Z,100224.47
2023-01-13T23:54:26.615Z,100220.31
2023-01-13T23:56:53.290Z,100226.47
2023-01-13T23:59:20.156Z,100227.78
